createdAt,value
2023-04-25T00:00:54.156Z,6.04
2023-04-25T00:05:57.822Z,6.05
2023-04-25T00:11:00.551Z,6.05
2023-04-25T00:16:03.238Z,6.14
2023-04-25T00:21:07.218Z,6.13
2023-04-25T00:26:08.826Z,6.10
2023-04-25T00:31:10.749Z,6.19
2023-04-25T00:36:12.389Z,6.24
2023-04-25T00:41:14.309Z,6.21
2023-04-25T00:46:16.038Z,6.18
2023-04-25T00:51:22.093Z,6.14
2023-04-25T00:56:23.650Z,6.09
2023-04-25T01:01:25.889Z,6.02
2023-04-25T01:06:28.361Z,5.89
2023-04-25T01:11:29.877Z,5.82
2023-04-25T01:16:32.035Z,5.81
2023-04-25T01:21:33.627Z,5.82
2023-04-25T01:26:36.273Z,5.85
2023-04-25T01:31:38.929Z,5.81
2023-04-25T01:36:41.000Z,5.86
2023-04-25T01:41:42.539Z,5.90
2023-04-25T01:46:44.411Z,5.97
2023-04-25T01:51:45.916Z,6.05
2023-04-25T01:56:52.077Z,6.03
2023-04-25T02:01:53.711Z,6.06
2023-04-25T02:06:55.423Z,6.11
2023-04-25T02:11:56.950Z,6.09
2023-04-25T02:16:59.405Z,6.06
2023-04-25T02:22:01.301Z,6.04
2023-04-25T02:27:02.967Z,5.99
2023-04-25T02:32:04.793Z,6.04
2023-04-25T02:37:06.271Z,6.05
2023-04-25T02:42:07.800Z,5.98
2023-04-25T02:47:09.387Z,5.85
2023-04-25T02:52:10.972Z,5.72
2023-04-25T02:57:12.458Z,5.63
2023-04-25T03:02:13.979Z,5.64
2023-04-25T03:07:15.516Z,5.65
2023-04-25T03:12:17.232Z,5.64
2023-04-25T03:17:18.760Z,5.64
2023-04-25T03:22:20.319Z,5.63
2023-04-25T03:27:21.844Z,5.60
2023-04-25T03:32:24.538Z,5.56
2023-04-25T03:37:26.084Z,5.59
2023-04-25T03:42:27.606Z,5.57
2023-04-25T03:47:29.244Z,5.66
2023-04-25T03:52:30.919Z,5.65
2023-04-25T03:57:32.408Z,5.59
2023-04-25T04:02:35.945Z,5.55
2023-04-25T04:07:40.890Z,5.45
2023-04-25T04:12:42.364Z,5.42
2023-04-25T04:17:43.967Z,5.43
2023-04-25T04:22:45.516Z,5.46
2023-04-25T04:27:47.158Z,5.45
2023-04-25T04:32:50.684Z,5.36
2023-04-25T04:37:52.340Z,5.31
2023-04-25T04:42:54.310Z,5.20
2023-04-25T04:47:56.374Z,5.09
2023-04-25T04:52:57.983Z,5.11
2023-04-25T04:57:59.515Z,5.16
2023-04-25T05:03:01.756Z,5.22
2023-04-25T05:08:03.480Z,5.26
2023-04-25T05:13:05.001Z,5.31
2023-04-25T05:18:06.509Z,5.38
2023-04-25T05:23:08.035Z,5.54
2023-04-25T05:28:09.489Z,5.66
2023-04-25T05:33:11.129Z,5.73
2023-04-25T05:38:12.640Z,5.79
2023-04-25T05:43:14.186Z,5.95
2023-04-25T05:48:15.752Z,6.13
2023-04-25T05:53:17.382Z,6.26
2023-04-25T05:58:18.917Z,6.33
2023-04-25T06:03:21.507Z,6.41
2023-04-25T06:08:23.162Z,6.47
2023-04-25T06:13:24.718Z,6.41
2023-04-25T06:18:26.270Z,6.30
2023-04-25T06:23:27.745Z,6.33
2023-04-25T06:28:29.291Z,6.27
2023-04-25T06:33:30.823Z,6.30
2023-04-25T06:38:32.369Z,6.59
2023-04-25T06:43:34.625Z,6.52
2023-04-25T06:48:36.165Z,6.23
2023-04-25T06:53:37.694Z,6.11
2023-04-25T06:58:39.313Z,6.22
2023-04-25T07:03:40.958Z,6.43
2023-04-25T07:08:42.712Z,6.51
2023-04-25T07:13:45.067Z,6.54
2023-04-25T07:18:46.570Z,6.65
2023-04-25T07:23:48.135Z,6.85
2023-04-25T07:28:51.970Z,7.10
2023-04-25T07:33:53.788Z,7.40
2023-04-25T07:38:55.345Z,7.77
2023-04-25T07:43:56.896Z,7.82
2023-04-25T07:48:58.379Z,8.01
2023-04-25T07:54:00.659Z,8.09
2023-04-25T07:59:02.299Z,8.30
2023-04-25T08:04:04.072Z,8.41
2023-04-25T08:09:05.943Z,8.80
2023-04-25T08:14:07.506Z,9.15
2023-04-25T08:19:09.272Z,7.93
2023-04-25T08:24:10.875Z,6.73
2023-04-25T08:29:12.341Z,6.84
2023-04-25T08:34:13.815Z,6.81
2023-04-25T08:39:15.442Z,6.83
2023-04-25T08:44:17.585Z,7.27
2023-04-25T08:49:20.011Z,7.75
2023-04-25T08:59:34.792Z,8.23
2023-04-25T09:04:37.312Z,8.50
2023-04-25T09:09:38.806Z,8.46
2023-04-25T09:14:40.498Z,8.62
2023-04-25T09:19:42.606Z,8.73
2023-04-25T09:24:46.966Z,8.87
2023-04-25T09:29:48.665Z,8.87
2023-04-25T09:34:51.877Z,9.37
2023-04-25T09:40:01.448Z,9.68
2023-04-25T09:45:04.790Z,10.03
2023-04-25T09:50:15.244Z,9.85
2023-04-25T09:55:16.952Z,9.48
2023-04-25T10:00:19.207Z,9.42
2023-04-25T10:05:21.136Z,9.62
2023-04-25T10:10:26.795Z,9.75
2023-04-25T10:15:29.159Z,10.10
2023-04-25T10:20:31.518Z,10.32
2023-04-25T10:25:33.164Z,10.58
2023-04-25T10:30:34.897Z,10.64
2023-04-25T10:35:36.712Z,10.73
2023-04-25T10:40:38.289Z,10.68
2023-04-25T10:45:53.239Z,10.73
2023-04-25T10:51:21.078Z,10.41
2023-04-25T10:56:25.925Z,9.80
2023-04-25T11:01:27.436Z,9.62
2023-04-25T11:06:55.852Z,9.71
2023-04-25T11:12:03.286Z,9.92
2023-04-25T11:17:04.909Z,10.04
2023-04-25T11:27:32.310Z,9.29
2023-04-25T11:32:34.794Z,8.15
2023-04-25T11:37:37.199Z,7.38
2023-04-25T11:42:46.716Z,7.84
2023-04-25T11:47:48.492Z,8.53
2023-04-25T11:52:51.204Z,8.94
2023-04-25T11:57:53.032Z,9.41
2023-04-25T12:02:57.086Z,9.56
2023-04-25T12:07:58.780Z,9.68
2023-04-25T12:13:00.293Z,9.49
2023-04-25T12:18:03.457Z,9.30
2023-04-25T12:23:08.887Z,9.70
2023-04-25T12:28:20.550Z,9.85
2023-04-25T12:33:23.287Z,10.21
2023-04-25T12:38:26.554Z,10.01
2023-04-25T12:43:28.223Z,9.33
2023-04-25T12:48:29.750Z,9.13
2023-04-25T12:53:32.262Z,9.26
2023-04-25T12:58:34.749Z,9.19
2023-04-25T13:03:36.397Z,9.16
2023-04-25T13:08:39.176Z,8.96
2023-04-25T13:13:41.136Z,8.93
2023-04-25T13:18:42.920Z,8.89
2023-04-25T13:23:45.603Z,8.60
2023-04-25T13:28:47.126Z,8.84
2023-04-25T13:33:48.765Z,9.00
2023-04-25T13:38:50.483Z,9.05
2023-04-25T13:43:52.490Z,8.93
2023-04-25T13:48:59.745Z,8.94
2023-04-25T13:54:04.586Z,9.26
2023-04-25T13:59:06.096Z,9.35
2023-04-25T14:04:07.706Z,8.64
2023-04-25T14:09:11.101Z,7.85
2023-04-25T14:14:13.164Z,7.20
2023-04-25T14:19:15.395Z,7.52
2023-04-25T14:24:16.923Z,7.85
2023-04-25T14:29:18.479Z,8.02
2023-04-25T14:34:19.947Z,8.12
2023-04-25T14:39:21.885Z,8.15
2023-04-25T14:44:23.470Z,8.13
2023-04-25T14:49:24.996Z,8.40
2023-04-25T14:54:26.648Z,8.59
2023-04-25T14:59:29.165Z,8.90
2023-04-25T15:04:30.906Z,8.98
2023-04-25T15:09:32.985Z,8.65
2023-04-25T15:14:34.952Z,8.60
2023-04-25T15:19:36.473Z,8.73
2023-04-25T15:24:38.052Z,9.04
2023-04-25T15:29:39.693Z,8.89
2023-04-25T15:34:41.282Z,8.83
2023-04-25T15:39:42.781Z,8.65
2023-04-25T15:44:44.322Z,8.46
2023-04-25T15:49:47.066Z,8.30
2023-04-25T15:54:49.359Z,8.24
2023-04-25T15:59:50.850Z,8.09
2023-04-25T16:04:52.509Z,8.06
2023-04-25T16:09:54.033Z,8.00
2023-04-25T16:14:56.193Z,8.07
2023-04-25T16:19:59.189Z,8.01
2023-04-25T16:25:00.729Z,7.81
2023-04-25T16:30:02.776Z,7.74
2023-04-25T16:35:04.417Z,7.67
2023-04-25T16:40:09.803Z,7.59
2023-04-25T16:45:13.112Z,7.59
2023-04-25T16:50:17.516Z,7.60
2023-04-25T16:55:19.178Z,7.54
2023-04-25T17:00:21.772Z,7.55
2023-04-25T17:05:24.976Z,7.22
2023-04-25T17:10:27.118Z,7.06
2023-04-25T17:15:28.688Z,7.14
2023-04-25T17:20:33.086Z,7.13
2023-04-25T17:25:34.801Z,7.10
2023-04-25T17:30:36.386Z,7.02
2023-04-25T17:35:38.037Z,7.05
2023-04-25T17:40:39.531Z,7.13
2023-04-25T17:45:41.254Z,7.25
2023-04-25T17:50:42.819Z,7.20
2023-04-25T17:55:44.380Z,7.34
2023-04-25T18:00:46.454Z,7.39
2023-04-25T18:05:47.975Z,7.39
2023-04-25T18:10:49.611Z,7.21
2023-04-25T18:15:51.859Z,6.63
2023-04-25T18:20:53.501Z,6.39
2023-04-25T18:25:55.060Z,6.29
2023-04-25T18:30:56.862Z,6.17
2023-04-25T18:35:59.859Z,6.12
2023-04-25T18:41:18.246Z,6.04
2023-04-25T18:46:23.494Z,5.96
2023-04-25T18:51:31.656Z,5.89
2023-04-25T18:56:33.170Z,5.77
2023-04-25T19:01:34.781Z,5.71
2023-04-25T19:06:36.369Z,5.59
2023-04-25T19:11:38.177Z,5.57
2023-04-25T19:16:39.769Z,5.51
2023-04-25T19:21:41.785Z,5.47
2023-04-25T19:26:43.306Z,5.43
2023-04-25T19:31:45.474Z,5.38
2023-04-25T19:36:47.150Z,5.35
2023-04-25T19:41:48.659Z,5.32
2023-04-25T19:46:50.270Z,5.34
2023-04-25T19:51:51.840Z,5.35
2023-04-25T19:56:53.314Z,5.22
2023-04-25T20:01:54.833Z,5.13
2023-04-25T20:06:56.421Z,5.04
2023-04-25T20:11:58.006Z,4.95
2023-04-25T20:16:59.462Z,4.92
2023-04-25T20:22:00.918Z,4.92
2023-04-25T20:27:03.000Z,4.87
2023-04-25T20:32:04.935Z,4.78
2023-04-25T20:37:08.469Z,4.70
2023-04-25T20:42:10.090Z,4.60
2023-04-25T20:47:11.645Z,4.59
2023-04-25T20:52:13.334Z,4.47
2023-04-25T20:57:14.874Z,4.38
2023-04-25T21:02:16.478Z,4.30
2023-04-25T21:07:18.144Z,4.27
2023-04-25T21:12:19.614Z,4.22
2023-04-25T21:17:21.260Z,4.10
2023-04-25T21:22:22.884Z,4.14
2023-04-25T21:27:24.429Z,4.09
2023-04-25T21:32:26.670Z,3.92
2023-04-25T21:37:28.252Z,3.94
2023-04-25T21:42:30.032Z,3.88
2023-04-25T21:47:32.917Z,3.84
2023-04-25T21:52:36.318Z,3.82
2023-04-25T21:57:37.880Z,3.74
2023-04-25T22:02:40.229Z,3.73
2023-04-25T22:07:42.149Z,3.81
2023-04-25T22:12:44.609Z,3.89
2023-04-25T22:17:47.244Z,3.94
2023-04-25T22:22:49.463Z,3.87
2023-04-25T22:27:51.553Z,3.86
2023-04-25T22:32:53.161Z,3.81
2023-04-25T22:37:54.677Z,3.73
2023-04-25T22:42:56.353Z,3.67
2023-04-25T22:47:58.481Z,3.59
2023-04-25T22:53:00.514Z,3.54
2023-04-25T22:58:02.505Z,3.49
2023-04-25T23:03:04.387Z,3.46
2023-04-25T23:08:06.101Z,3.50
2023-04-25T23:13:08.075Z,3.49
2023-04-25T23:18:09.809Z,3.43
2023-04-25T23:23:11.680Z,3.39
2023-04-25T23:28:13.150Z,3.32
2023-04-25T23:33:14.646Z,3.30
2023-04-25T23:38:17.180Z,3.27
2023-04-25T23:43:18.751Z,3.25
2023-04-25T23:48:20.302Z,3.21
2023-04-25T23:53:21.933Z,3.14
2023-04-25T23:58:23.594Z,3.12
